Terminal Aerodrome Forecast
Issued by NWS Columbia, SC

Home | Current Version | Previous Version | Text Only | Print | Product List | Glossary On
Versions: 1 2 3 4 5 6 7 8 9 10 11 12 13 14 15 16 17 18 19 20 21 22 23 24 25 26 27 28 29 30 31 32 33 34 35 36 37 38 39 40 41 42 43 44 45 46 47 48
000
FTUS42 KCAE 011700
TAFAGS
TAF
KAGS 011734Z 0118/0218 18010G20KT P6SM BKN050
     FM020400 20015G23KT 6SM -RA BKN025 OVC050
     FM020800 21016G25KT 4SM -RA BR SCT007 OVC015
     FM021400 27021G33KT P6SM -RA BKN035=

USA.gov is the U.S. government's official web portal to all federal, state and local government web resources and services.